Senador Petrônio Portela Airport
SBTE : now visible

Airfield :











YOU CAN JOIN US ON...

 
LOGIN :

Register | Disclaimer

   EN    FR    IT 

 









Legend :    VFR   Marginal VFR   IFR   Intensive IFR   Very Intensive IFR
Visi :
Ceiling :
>= 8 km
>= 3000ft
5 to 8 km
1000 to 3000 ft
1500m to 5 km
500 to 1000 ft
800 to 1500m
200 to 500 ft
< 800m
< 200 ft
Symbols :   Thunderstorms  Fog  Heavy snow  Heavy precipitations  Wind > 20 kt






- Airport Elevation : 219 ft
- IATA code : THE


SBTE - Senador Petrônio Portela

CURRENT METAR :
  • 041800Z 16003KT 9999 SCT040 33/24 Q1007

EXPIRED METARs :
  • 041700Z 08003KT 9999 SCT040 34/25 Q1008
  • 041600Z 09002KT 9999 BKN030 32/24 Q1009

TAF TAF SBTE
Valid from the 04 at 12:00 until the 05 at 00:00 UTC


040900Z 0412/0424 15005KT CAVOK TN30/0412Z TX34/0418Z
BECMG 0413/0415 9999 BKN030
BECMG 0416/0418 09005KT SCT040 FEW045TCU
PROB30 0418/0424 TSRA SCT030 FEW033CB RMK PEW



MET'MAP, your aeronautical weather chart ! - Copyright ORBIFLY December 2007 - Disclaimer

ORBIFLY MET'MAP TEAM :

Programming & Development : Alexandra Zaïnal
Concept & original design : Baudouin d'Aumeries
Assistance for programming : Marc-Olivier Méhu
Technical & hardware support : Manuel Goepfert

Contact : metmap@orbifly.com




SOURCES & CREDITS :

   NOAA       Earth
Advisory